Time;durP1;ratioP1;P1;durP2;ratioP2;P2;SDS_P1;SDS_P2;PMS_P1;PMS_P2;Temp;Humidity;BMP_temperature;BMP_pressure;BME280_temperature;BME280_humidity;BME280_pressure;Samples;Min_cycle;Max_cycle;Signal;HPM_P1;HPM_P2
2022/01/28 00:01:04;;;;;;;17.85;2.63;;;;;;;4.19;90.13;102938.06;5048662;28;20078;-76
2022/01/28 00:03:32;;;;;;;17.98;2.78;;;;;;;4.14;90.19;102945.94;5048425;28;20447;-76
2022/01/28 00:05:57;;;;;;;15.65;2.30;;;;;;;4.11;90.46;102953.78;5048909;28;20074;-76
2022/01/28 00:08:23;;;;;;;15.93;2.83;;;;;;;4.06;90.60;102951.25;5038369;28;20034;-76
2022/01/28 00:10:50;;;;;;;12.63;2.60;;;;;;;4.06;90.54;102966.03;5029954;28;20389;-76
2022/01/28 00:13:21;;;;;;;16.05;2.70;;;;;;;4.05;90.10;102972.09;5038435;28;20119;-76
2022/01/28 00:18:41;;;;;;;17.13;2.72;;;;;;;4.01;90.50;102980.84;5049804;28;20392;-76
2022/01/28 00:40:15;;;;;;;17.65;2.70;;;;;;;3.74;91.47;102998.50;5049746;28;20116;-75
2022/01/28 00:42:42;;;;;;;13.27;2.45;;;;;;;3.71;90.75;102998.53;5048718;28;20451;-75
2022/01/28 00:45:07;;;;;;;21.33;3.00;;;;;;;3.69;91.49;102995.09;5047751;28;20075;-75
2022/01/28 00:47:33;;;;;;;15.63;2.47;;;;;;;3.68;91.18;102998.56;5051868;28;20630;-75
2022/01/28 00:49:58;;;;;;;16.58;2.67;;;;;;;3.68;91.48;102987.31;5046038;28;20384;-75
2022/01/28 00:52:24;;;;;;;21.23;2.70;;;;;;;3.68;91.84;102984.69;5053243;28;20037;-75
2022/01/28 00:54:49;;;;;;;11.77;2.15;;;;;;;3.69;91.63;102994.22;5052893;28;20446;-75
2022/01/28 00:57:17;;;;;;;18.95;3.20;;;;;;;3.68;91.16;102987.31;5052516;28;20477;-75
2022/01/28 00:59:43;;;;;;;15.48;2.75;;;;;;;3.69;91.14;102995.09;5053016;28;20052;-75
2022/01/28 01:02:08;;;;;;;18.42;2.80;;;;;;;3.67;91.20;102996.00;5034240;28;20461;-74
2022/01/28 01:04:33;;;;;;;17.30;2.42;;;;;;;3.71;91.62;102995.94;5051858;28;20021;-76
2022/01/28 01:07:00;;;;;;;19.02;2.95;;;;;;;3.71;91.68;102995.94;5044485;28;20100;-75
2022/01/28 01:09:25;;;;;;;21.17;2.83;;;;;;;3.72;90.89;102996.78;5032646;28;20029;-74
2022/01/28 01:11:51;;;;;;;17.45;2.83;;;;;;;3.73;90.94;102993.31;5032868;28;20028;-75
2022/01/28 01:14:16;;;;;;;23.88;3.00;;;;;;;3.72;91.23;103002.88;5055817;28;20464;-74
2022/01/28 01:17:01;;;;;;;15.60;2.75;;;;;;;3.71;90.73;103008.94;5032803;28;20482;-74
2022/01/28 01:19:31;;;;;;;14.10;2.40;;;;;;;3.70;91.49;103011.56;5032433;28;20017;-76
2022/01/28 01:21:59;;;;;;;19.35;2.50;;;;;;;3.70;90.92;103017.63;5049277;28;20387;-76
2022/01/28 01:24:28;;;;;;;19.05;2.60;;;;;;;3.68;91.01;103002.91;5045520;28;20051;-76
2022/01/28 01:26:54;;;;;;;15.45;2.35;;;;;;;3.67;91.08;103007.25;5051791;28;20439;-76
2022/01/28 01:29:22;;;;;;;13.48;2.30;;;;;;;3.65;90.36;103010.75;5053010;28;20025;-76
2022/01/28 01:31:48;;;;;;;19.83;2.47;;;;;;;3.63;90.66;103015.97;5051744;28;20116;-76
2022/01/28 01:34:17;;;;;;;17.60;2.60;;;;;;;3.61;91.31;103020.34;5052123;28;20128;-75
2022/01/28 01:36:44;;;;;;;18.77;3.13;;;;;;;3.59;91.15;103024.66;5052809;28;20100;-75
2022/01/28 01:39:10;;;;;;;17.83;2.45;;;;;;;3.57;90.86;103025.56;5051904;28;20477;-75
2022/01/28 01:42:01;;;;;;;19.05;2.55;;;;;;;3.51;91.13;103017.81;5046904;28;20056;-75
2022/01/28 01:52:22;;;;;;;16.33;2.38;;;;;;;3.49;91.77;103038.66;5052481;28;20039;-75
2022/01/28 01:54:50;;;;;;;16.88;2.50;;;;;;;3.48;91.62;103047.34;5050230;28;20039;-75
2022/01/28 01:57:17;;;;;;;15.85;2.28;;;;;;;3.46;91.77;103054.31;5045805;28;20021;-75
2022/01/28 01:59:43;;;;;;;13.63;2.83;;;;;;;3.48;92.16;103070.75;5049734;28;20377;-75
2022/01/28 02:02:10;;;;;;;18.42;2.45;;;;;;;3.47;92.10;103069.03;5051645;28;20104;-75
2022/01/28 02:04:36;;;;;;;17.92;2.70;;;;;;;3.48;92.07;103073.38;5052014;28;20036;-75
2022/01/28 02:07:02;;;;;;;13.30;2.80;;;;;;;3.47;92.04;103072.50;5049097;28;20051;-75
2022/01/28 02:09:28;;;;;;;18.50;2.70;;;;;;;3.48;92.29;103078.56;5051686;28;20024;-75
2022/01/28 02:11:53;;;;;;;20.08;2.40;;;;;;;3.47;92.47;103082.03;5051206;28;20021;-75
2022/01/28 02:14:19;;;;;;;14.05;2.92;;;;;;;3.47;92.21;103092.47;5052013;28;20029;-75
2022/01/28 02:16:48;;;;;;;22.48;2.80;;;;;;;3.47;92.56;103089.84;5051343;28;20025;-75
2022/01/28 02:19:14;;;;;;;14.27;2.53;;;;;;;3.46;92.96;103090.72;5051841;28;20032;-75
2022/01/28 02:21:45;;;;;;;14.75;2.30;;;;;;;3.45;92.51;103083.81;5049371;28;20025;-75
2022/01/28 02:24:13;;;;;;;16.87;2.77;;;;;;;3.46;92.51;103091.59;5050109;28;20048;-75
2022/01/28 02:26:39;;;;;;;16.88;2.58;;;;;;;3.47;92.87;103095.06;5050815;28;20031;-74
2022/01/28 02:29:14;;;;;;;14.02;2.22;;;;;;;3.44;92.48;103092.47;5050069;28;20562;-75
2022/01/28 02:31:41;;;;;;;18.45;2.75;;;;;;;3.43;92.83;103090.75;5048105;28;20543;-75
2022/01/28 02:34:10;;;;;;;17.90;2.50;;;;;;;3.41;93.22;103088.16;5046410;28;20090;-75
2022/01/28 02:36:36;;;;;;;10.63;2.22;;;;;;;3.40;93.40;103089.03;5050497;28;20135;-75
2022/01/28 02:39:03;;;;;;;18.52;2.92;;;;;;;3.41;92.44;103093.38;5049207;28;20036;-75
2022/01/28 02:41:33;;;;;;;19.92;2.78;;;;;;;3.39;92.78;103095.13;5051415;28;20448;-75
2022/01/28 02:44:14;;;;;;;15.77;2.90;;;;;;;3.40;93.09;103090.78;5050161;28;20029;-75
2022/01/28 02:46:52;;;;;;;16.42;2.65;;;;;;;3.42;93.00;103094.25;5051418;28;20267;-75
2022/01/28 02:49:17;;;;;;;20.05;2.80;;;;;;;3.41;92.90;103082.09;5048333;28;20025;-75
2022/01/28 02:51:43;;;;;;;16.02;2.42;;;;;;;3.42;93.32;103096.84;5050221;28;20173;-75
2022/01/28 02:54:14;;;;;;;18.40;2.85;;;;;;;3.39;93.12;103096.88;5049963;28;20031;-75
2022/01/28 02:56:47;;;;;;;13.60;2.50;;;;;;;3.40;92.87;103103.78;5049410;28;20094;-75
2022/01/28 02:59:12;;;;;;;18.08;2.65;;;;;;;3.39;93.44;103112.47;5051729;28;20082;-75
2022/01/28 03:01:39;;;;;;;15.73;2.30;;;;;;;3.40;93.05;103106.41;5046281;28;20029;-75
2022/01/28 03:04:08;;;;;;;16.98;2.75;;;;;;;3.40;93.24;103109.88;5048527;28;20033;-75
2022/01/28 03:06:33;;;;;;;14.70;2.85;;;;;;;3.38;93.16;103113.34;5049761;28;20547;-75
2022/01/28 03:09:03;;;;;;;14.68;1.77;;;;;;;3.37;92.91;103122.03;5039300;28;20128;-75
2022/01/28 03:11:42;;;;;;;10.02;2.08;;;;;;;3.33;92.69;103117.72;5048370;28;20025;-75
2022/01/28 03:14:17;;;;;;;18.88;2.85;;;;;;;3.32;93.19;103124.69;5060873;28;20452;-76
2022/01/28 03:20:39;;;;;;;15.88;2.42;;;;;;;3.30;92.92;103120.34;5070364;28;20170;-75
2022/01/28 03:22:27;;;;;;;15.13;2.50;;;;;;;3.30;93.42;103125.56;5025708;28;20082;-75
2022/01/28 03:24:53;;;;;;;13.35;2.78;;;;;;;3.29;93.78;103121.22;5033647;28;20025;-75
2022/01/28 03:27:46;;;;;;;18.05;2.83;;;;;;;3.29;93.81;103129.91;5049147;28;20566;-75
2022/01/28 03:30:10;;;;;;;12.75;2.25;;;;;;;3.30;93.35;103130.75;5048873;28;20114;-75
2022/01/28 03:32:36;;;;;;;20.13;2.85;;;;;;;3.29;93.59;103126.44;5050326;28;20033;-75
2022/01/28 03:35:03;;;;;;;18.23;2.70;;;;;;;3.31;94.34;103135.09;5048321;28;20032;-75
2022/01/28 03:37:29;;;;;;;21.00;3.05;;;;;;;3.31;94.28;103128.16;5048352;28;20028;-75
2022/01/28 03:39:55;;;;;;;12.73;2.45;;;;;;;3.36;94.93;103125.50;5037692;28;20503;-75
2022/01/28 03:42:21;;;;;;;18.35;2.80;;;;;;;3.37;94.76;103127.25;5046783;28;20170;-75
2022/01/28 03:44:46;;;;;;;19.70;2.80;;;;;;;3.41;95.35;103124.59;5048872;28;20021;-75
2022/01/28 03:47:12;;;;;;;15.93;2.85;;;;;;;3.43;94.96;103133.25;5050130;28;20025;-75
2022/01/28 03:49:37;;;;;;;11.90;2.40;;;;;;;3.43;94.78;103127.19;5049833;28;20028;-75
2022/01/28 03:52:03;;;;;;;15.25;2.53;;;;;;;3.45;94.89;103135.84;5047209;28;20119;-75
2022/01/28 03:54:29;;;;;;;17.35;2.58;;;;;;;3.43;94.28;103140.19;5048472;28;20029;-75
2022/01/28 03:56:54;;;;;;;18.08;2.20;;;;;;;3.43;94.04;103133.25;5043389;28;20031;-75
2022/01/28 03:59:20;;;;;;;13.13;2.15;;;;;;;3.41;94.40;103139.34;5048215;28;20021;-75
2022/01/28 04:01:47;;;;;;;13.27;2.03;;;;;;;3.39;94.57;103141.09;5049038;28;20021;-76
2022/01/28 04:12:42;;;;;;;9.32;1.60;;;;;;;3.34;94.25;103159.34;5049809;28;20036;-76
2022/01/28 04:15:22;;;;;;;13.65;1.83;;;;;;;3.32;94.50;103153.28;5051295;28;20048;-76
2022/01/28 04:17:49;;;;;;;10.20;1.83;;;;;;;3.29;94.21;103160.25;5048139;28;20025;-76
2022/01/28 04:20:14;;;;;;;11.40;1.90;;;;;;;3.28;93.89;103148.97;5049872;28;20056;-76
2022/01/28 04:22:40;;;;;;;10.50;2.28;;;;;;;3.27;94.06;103165.47;5047825;28;20134;-76
2022/01/28 04:25:05;;;;;;;13.45;1.92;;;;;;;3.25;94.32;103154.22;5048584;28;20036;-76
2022/01/28 04:27:31;;;;;;;12.90;2.38;;;;;;;3.25;94.81;103153.34;5048051;28;20557;-76
2022/01/28 04:29:56;;;;;;;14.27;2.00;;;;;;;3.25;95.15;103159.41;5049389;28;20455;-76
2022/01/28 04:32:25;;;;;;;9.40;2.28;;;;;;;3.24;95.40;103165.50;5024952;28;20401;-76
2022/01/28 04:34:53;;;;;;;14.95;2.28;;;;;;;3.27;95.58;103172.41;5048159;28;20033;-76
2022/01/28 04:39:51;;;;;;;17.50;3.15;;;;;;;3.23;95.83;103178.50;5049458;28;20033;-76
2022/01/28 04:47:44;;;;;;;13.18;3.03;;;;;;;3.22;95.88;103184.59;5048740;28;20458;-76
2022/01/28 04:51:19;;;;;;;15.98;3.40;;;;;;;3.22;96.43;103179.38;5042026;28;20108;-76
2022/01/28 05:01:42;;;;;;;24.88;3.90;;;;;;;3.14;95.97;103179.41;5033147;28;20094;-76
2022/01/28 05:07:21;;;;;;;20.98;3.83;;;;;;;3.08;96.07;103172.50;5042866;28;20052;-76
2022/01/28 05:10:19;;;;;;;20.52;4.47;;;;;;;3.10;96.63;103195.91;5038426;28;20047;-75
2022/01/28 05:15:36;;;;;;;20.05;3.83;;;;;;;3.05;96.07;103202.88;5066425;28;20430;-75
2022/01/28 05:28:41;;;;;;;21.40;4.35;;;;;;;2.92;96.03;103222.88;5048894;28;20029;-74
2022/01/28 05:31:07;;;;;;;15.63;3.90;;;;;;;2.88;96.44;103226.34;5047821;28;20321;-75
2022/01/28 05:33:32;;;;;;;10.43;3.03;;;;;;;2.84;96.08;103224.63;5049063;28;20045;-75
2022/01/28 05:35:58;;;;;;;17.75;4.40;;;;;;;2.77;95.89;103220.28;5050772;28;20125;-75
2022/01/28 05:38:23;;;;;;;14.65;4.03;;;;;;;2.74;95.98;103228.09;5051347;28;20086;-75
2022/01/28 05:40:48;;;;;;;15.02;3.88;;;;;;;2.67;95.45;103229.00;5046083;28;20056;-75
2022/01/28 05:43:13;;;;;;;24.08;3.90;;;;;;;2.66;95.80;103230.72;5053314;28;20021;-75
2022/01/28 05:45:40;;;;;;;20.63;4.10;;;;;;;2.66;96.36;103241.13;5050651;28;20021;-75
2022/01/28 05:48:05;;;;;;;21.92;3.58;;;;;;;2.67;96.87;103242.00;5052808;28;20035;-75
2022/01/28 05:50:31;;;;;;;18.40;4.30;;;;;;;2.66;96.93;103245.47;5052039;28;20388;-74
2022/01/28 05:52:56;;;;;;;16.13;4.13;;;;;;;2.63;96.30;103235.94;5052441;28;20074;-74
2022/01/28 05:55:21;;;;;;;24.13;4.38;;;;;;;2.61;96.68;103242.88;5051525;28;20102;-74
2022/01/28 05:57:47;;;;;;;21.55;4.28;;;;;;;2.56;96.62;103248.97;5044387;28;20038;-74
2022/01/28 06:00:14;;;;;;;17.67;4.10;;;;;;;2.54;96.18;103245.50;5053233;28;20042;-74
2022/01/28 06:02:39;;;;;;;19.73;4.10;;;;;;;2.51;96.71;103244.63;5050653;28;20108;-74
2022/01/28 06:05:05;;;;;;;17.83;4.45;;;;;;;2.46;95.98;103248.97;5051816;28;20191;-74
2022/01/28 06:07:30;;;;;;;19.42;4.25;;;;;;;2.41;95.90;103260.25;5051338;28;20025;-74
2022/01/28 06:09:56;;;;;;;13.13;3.85;;;;;;;2.33;96.53;103268.03;5051987;28;20021;-77
2022/01/28 06:12:22;;;;;;;14.55;4.30;;;;;;;2.33;96.43;103281.00;5051695;28;20025;-76
2022/01/28 06:14:47;;;;;;;20.35;4.55;;;;;;;2.30;96.60;103272.34;5056428;28;20081;-77
2022/01/28 06:17:12;;;;;;;21.40;3.88;;;;;;;2.27;96.36;103278.44;5052633;28;20106;-77
2022/01/28 06:19:41;;;;;;;18.20;3.97;;;;;;;2.25;96.35;103274.97;5051598;28;20037;-76
2022/01/28 06:22:06;;;;;;;22.70;4.43;;;;;;;2.20;96.13;103274.09;5051763;28;20031;-76
2022/01/28 06:24:32;;;;;;;14.27;3.78;;;;;;;2.12;95.28;103278.44;5052462;28;20020;-74
2022/01/28 06:26:57;;;;;;;18.17;4.13;;;;;;;2.08;95.50;103287.09;5050794;28;20132;-75
2022/01/28 06:29:22;;;;;;;15.65;3.80;;;;;;;2.06;95.71;103292.28;5052059;28;20053;-75
2022/01/28 06:31:49;;;;;;;15.20;3.88;;;;;;;2.02;96.26;103292.28;5042470;28;20045;-74
2022/01/28 06:34:14;;;;;;;19.45;3.92;;;;;;;1.95;95.72;103296.56;5051576;28;20051;-75
2022/01/28 06:36:40;;;;;;;12.48;3.67;;;;;;;1.85;95.69;103293.09;5051772;28;20116;-74
2022/01/28 06:39:05;;;;;;;13.20;3.60;;;;;;;1.79;95.81;103308.69;5050477;28;20439;-74
2022/01/28 06:41:30;;;;;;;17.15;3.20;;;;;;;1.75;95.75;103306.94;5051126;28;20025;-75
2022/01/28 06:43:57;;;;;;;15.18;4.18;;;;;;;1.75;95.74;103309.53;5051363;28;20384;-74
2022/01/28 06:46:22;;;;;;;21.63;3.92;;;;;;;1.73;96.12;103310.41;5050170;28;20082;-74
2022/01/28 06:48:47;;;;;;;11.98;3.55;;;;;;;1.68;95.55;103310.38;5038687;28;20029;-74
2022/01/28 06:51:13;;;;;;;16.50;3.47;;;;;;;1.70;96.83;103320.78;5030920;28;20099;-74
2022/01/28 06:53:41;;;;;;;15.50;3.90;;;;;;;1.66;96.24;103326.81;5031134;28;20382;-74
2022/01/28 06:56:07;;;;;;;22.75;3.97;;;;;;;1.62;96.79;103323.34;5030569;28;20033;-74
2022/01/28 06:58:32;;;;;;;23.98;3.92;;;;;;;1.61;96.71;103336.31;5032046;28;20268;-74
2022/01/28 07:00:58;;;;;;;22.33;4.20;;;;;;;1.60;96.98;103339.75;5049796;28;20100;-74
2022/01/28 07:03:23;;;;;;;17.48;4.18;;;;;;;1.58;96.48;103352.72;5047726;28;20040;-74
2022/01/28 07:05:48;;;;;;;16.15;3.80;;;;;;;1.57;97.20;103358.75;5047013;28;20029;-74
2022/01/28 07:08:14;;;;;;;11.70;3.85;;;;;;;1.50;97.10;103350.09;5050373;28;20028;-74
2022/01/28 07:10:39;;;;;;;16.75;4.03;;;;;;;1.52;96.43;103373.44;5050375;28;20396;-75
2022/01/28 07:13:05;;;;;;;14.43;4.18;;;;;;;1.50;96.87;103375.16;5052601;28;20287;-75
2022/01/28 07:15:31;;;;;;;16.65;4.03;;;;;;;1.44;96.98;103385.53;5069690;28;20373;-74
2022/01/28 07:18:02;;;;;;;17.67;4.28;;;;;;;1.45;96.71;103376.88;5050215;28;20451;-74
2022/01/28 07:20:31;;;;;;;18.13;4.20;;;;;;;1.41;97.01;103373.41;5043881;28;20031;-74
2022/01/28 07:22:57;;;;;;;16.65;4.40;;;;;;;1.39;97.47;103379.44;5049221;28;20032;-74
2022/01/28 07:25:22;;;;;;;16.52;3.97;;;;;;;1.38;97.41;103381.19;5047700;28;20074;-74
2022/01/28 07:27:47;;;;;;;17.08;4.63;;;;;;;1.36;97.45;103388.09;5048196;28;20025;-75
2022/01/28 07:30:15;;;;;;;18.52;4.50;;;;;;;1.36;97.44;103392.41;5042452;28;20163;-74
2022/01/28 07:32:42;;;;;;;14.38;4.07;;;;;;;1.33;97.31;103390.66;5046783;28;20078;-74
2022/01/28 07:35:09;;;;;;;19.60;4.03;;;;;;;1.30;97.35;103394.97;5047120;28;20553;-74
2022/01/28 07:37:35;;;;;;;15.18;4.32;;;;;;;1.25;96.80;103401.00;5050501;28;20037;-74
2022/01/28 07:40:02;;;;;;;17.88;4.15;;;;;;;1.24;97.07;103408.78;5047807;28;20029;-74
2022/01/28 07:42:32;;;;;;;16.92;4.65;;;;;;;1.21;97.15;103404.44;5048164;28;20107;-74
2022/01/28 07:44:57;;;;;;;16.10;4.05;;;;;;;1.24;97.56;103406.19;5046564;28;20377;-74
2022/01/28 07:47:23;;;;;;;15.95;4.07;;;;;;;1.19;97.43;103403.53;5045588;28;20032;-74
2022/01/28 07:49:48;;;;;;;18.55;4.35;;;;;;;1.22;97.04;103400.13;5046954;28;20024;-74
2022/01/28 07:52:14;;;;;;;25.15;5.18;;;;;;;1.23;98.03;103407.91;5049348;28;20046;-74
2022/01/28 07:54:46;;;;;;;21.38;4.85;;;;;;;1.21;97.91;103419.13;5048172;28;20033;-74
2022/01/28 07:57:11;;;;;;;16.55;4.57;;;;;;;1.18;98.14;103409.56;5048925;28;20115;-74
2022/01/28 07:59:37;;;;;;;17.25;4.93;;;;;;;1.20;98.20;103412.19;5048466;28;20829;-74
2022/01/28 08:02:03;;;;;;;20.17;4.85;;;;;;;1.17;98.35;103418.22;5048026;28;20532;-73
2022/01/28 08:04:28;;;;;;;15.35;4.60;;;;;;;1.16;97.97;103410.41;5052892;28;20151;-74
2022/01/28 08:06:54;;;;;;;16.50;5.00;;;;;;;1.16;98.00;103413.88;5055185;28;20043;-74
2022/01/28 08:09:20;;;;;;;21.20;4.93;;;;;;;1.13;97.94;103416.47;5051134;28;20499;-74
2022/01/28 08:11:47;;;;;;;16.88;4.85;;;;;;;1.14;98.02;103428.56;5068920;28;20023;-74
2022/01/28 08:14:14;;;;;;;20.58;5.20;;;;;;;1.13;98.85;103421.63;5058473;28;20029;-75
2022/01/28 08:16:39;;;;;;;20.63;6.20;;;;;;;1.17;99.03;103427.72;5067336;28;20035;-75
2022/01/28 08:19:05;;;;;;;19.23;6.15;;;;;;;1.19;99.22;103434.63;5053494;28;20029;-75
2022/01/28 08:21:30;;;;;;;13.30;6.10;;;;;;;1.21;99.48;103443.34;5056661;28;20020;-75
2022/01/28 08:23:55;;;;;;;16.20;5.88;;;;;;;1.22;99.96;103442.47;5047589;28;20389;-74
2022/01/28 08:26:21;;;;;;;18.95;5.80;;;;;;;1.24;99.67;103455.44;5054819;28;20028;-75
2022/01/28 08:28:47;;;;;;;20.60;6.43;;;;;;;1.30;99.14;103462.41;5057007;28;20032;-75
2022/01/28 08:31:13;;;;;;;19.27;6.40;;;;;;;1.29;99.64;103458.06;5047245;28;20052;-76
2022/01/28 08:33:39;;;;;;;24.83;7.57;;;;;;;1.37;100.00;103452.06;5048229;28;20059;-76
2022/01/28 08:36:05;;;;;;;18.40;7.78;;;;;;;1.41;100.00;103458.13;5049022;28;20028;-76
2022/01/28 08:38:37;;;;;;;26.30;7.82;;;;;;;1.44;100.00;103458.16;5049197;28;20411;-76
2022/01/28 08:41:03;;;;;;;25.63;7.28;;;;;;;1.47;100.00;103463.34;5046321;28;20048;-74
2022/01/28 08:43:28;;;;;;;20.83;7.25;;;;;;;1.52;100.00;103474.63;5052359;28;20067;-74
2022/01/28 08:45:55;;;;;;;28.13;7.57;;;;;;;1.57;100.00;103470.31;5065537;28;20024;-74
2022/01/28 08:48:20;;;;;;;19.63;7.57;;;;;;;1.61;100.00;103466.91;5050414;28;20409;-74
2022/01/28 08:50:47;;;;;;;21.98;8.20;;;;;;;1.63;100.00;103470.38;5047283;28;20126;-75
2022/01/28 08:53:13;;;;;;;20.25;8.07;;;;;;;1.69;100.00;103469.53;5050743;28;20039;-74
2022/01/28 08:55:39;;;;;;;24.05;8.65;;;;;;;1.74;100.00;103463.50;5052288;28;20035;-74
2022/01/28 08:58:08;;;;;;;27.65;8.43;;;;;;;1.79;100.00;103471.31;5046320;28;20033;-74
2022/01/28 09:00:34;;;;;;;27.15;9.05;;;;;;;1.84;100.00;103469.59;5050598;28;20511;-74
2022/01/28 09:03:00;;;;;;;28.40;9.25;;;;;;;1.91;100.00;103471.38;5048257;28;20024;-74
2022/01/28 09:05:25;;;;;;;27.08;9.20;;;;;;;1.94;100.00;103471.38;5052340;28;20028;-74
2022/01/28 09:07:51;;;;;;;29.33;10.00;;;;;;;2.05;100.00;103481.84;5068539;28;20024;-74
2022/01/28 09:10:24;;;;;;;25.23;9.70;;;;;;;2.08;100.00;103469.72;5072580;28;20691;-74
2022/01/28 09:15:32;;;;;;;28.15;9.35;;;;;;;2.20;100.00;103479.28;5037613;28;20037;-74
2022/01/28 09:17:57;;;;;;;28.00;8.90;;;;;;;2.28;100.00;103474.97;5042532;28;20044;-74
2022/01/28 09:20:23;;;;;;;30.48;9.93;;;;;;;2.35;100.00;103458.53;5043617;28;20020;-74
2022/01/28 09:22:49;;;;;;;30.63;10.63;;;;;;;2.41;100.00;103474.16;5038467;28;20025;-74
2022/01/28 09:25:15;;;;;;;26.90;10.07;;;;;;;2.46;100.00;103472.44;5037763;28;20171;-75
2022/01/28 09:27:41;;;;;;;28.92;10.38;;;;;;;2.54;100.00;103479.38;5041423;28;20036;-74
2022/01/28 09:30:07;;;;;;;30.45;10.55;;;;;;;2.60;100.00;103482.84;5035266;28;20029;-75
2022/01/28 09:32:32;;;;;;;23.95;9.95;;;;;;;2.63;100.00;103485.44;5044267;28;20090;-75
2022/01/28 09:34:58;;;;;;;27.60;10.65;;;;;;;2.72;100.00;103494.97;5037642;28;20025;-75
2022/01/28 09:37:23;;;;;;;28.77;11.05;;;;;;;2.80;100.00;103488.94;5040309;28;20033;-75
2022/01/28 09:39:49;;;;;;;32.60;11.80;;;;;;;2.83;100.00;103480.28;5038572;28;20032;-74
2022/01/28 09:42:19;;;;;;;31.02;10.75;;;;;;;2.96;100.00;103488.94;5037904;28;20148;-75
2022/01/28 09:44:45;;;;;;;37.60;11.38;;;;;;;3.02;100.00;103486.34;5040728;28;20024;-75
2022/01/28 09:47:11;;;;;;;34.47;12.10;;;;;;;3.09;100.00;103475.94;5037081;28;20025;-75
2022/01/28 09:49:40;;;;;;;34.47;11.18;;;;;;;3.17;100.00;103488.06;5038466;28;20033;-74
2022/01/28 09:52:08;;;;;;;37.95;12.25;;;;;;;3.24;100.00;103489.81;5042554;28;20034;-75
2022/01/28 09:54:35;;;;;;;32.90;12.15;;;;;;;3.31;100.00;103496.72;5039661;28;20029;-75
2022/01/28 09:57:02;;;;;;;39.13;11.57;;;;;;;3.37;100.00;103497.59;5036007;28;20033;-75
2022/01/28 09:59:28;;;;;;;29.40;12.10;;;;;;;3.46;100.00;103505.38;5038909;28;20187;-75
2022/01/28 10:01:54;;;;;;;32.60;11.50;;;;;;;3.47;100.00;103503.63;5038895;28;20475;-75
2022/01/28 10:04:21;;;;;;;37.35;11.93;;;;;;;3.57;100.00;103507.94;5037446;28;20148;-74
2022/01/28 10:06:47;;;;;;;29.20;11.45;;;;;;;3.65;100.00;103498.41;5040510;28;20033;-74
2022/01/28 10:09:16;;;;;;;37.45;12.00;;;;;;;3.71;100.00;103493.19;5038592;28;20032;-74
2022/01/28 10:11:45;;;;;;;22.98;10.63;;;;;;;3.78;100.00;103489.69;5038010;28;20029;-74
2022/01/28 10:14:17;;;;;;;34.58;11.23;;;;;;;3.89;100.00;103499.19;5039235;28;20025;-74
2022/01/28 10:16:54;;;;;;;27.27;10.35;;;;;;;3.96;100.00;103493.09;5038500;28;20377;-75
2022/01/28 10:19:20;;;;;;;35.05;10.43;;;;;;;4.04;100.00;103497.41;5044204;28;20476;-77
2022/01/28 10:21:48;;;;;;;24.48;9.90;;;;;;;4.11;100.00;103505.19;5049134;28;20029;-77
2022/01/28 10:24:21;;;;;;;30.40;10.38;;;;;;;4.17;100.00;103493.00;5046315;28;20029;-77
2022/01/28 10:27:05;;;;;;;38.03;10.52;;;;;;;4.29;100.00;103503.38;5050862;28;20024;-77
2022/01/28 10:29:33;;;;;;;29.15;9.75;;;;;;;4.39;100.00;103502.44;5050904;28;20020;-76
2022/01/28 10:32:00;;;;;;;28.73;9.23;;;;;;;4.44;100.00;103497.22;5050010;28;20057;-75
2022/01/28 10:34:46;;;;;;;27.52;8.90;;;;;;;4.42;100.00;103490.28;5050360;28;20439;-76
2022/01/28 10:37:20;;;;;;;31.50;9.90;;;;;;;4.57;100.00;103508.44;5051603;28;20507;-75
2022/01/28 10:39:53;;;;;;;33.63;9.60;;;;;;;4.63;100.00;103497.97;5045227;28;20051;-76
2022/01/28 10:42:33;;;;;;;24.58;8.23;;;;;;;4.68;100.00;103502.25;5050094;28;20028;-76
2022/01/28 10:45:11;;;;;;;31.05;9.30;;;;;;;4.79;100.00;103503.94;5050737;28;20043;-76
2022/01/28 10:47:48;;;;;;;30.38;8.68;;;;;;;4.93;100.00;103502.97;5050860;28;20059;-76
2022/01/28 10:50:22;;;;;;;22.33;7.97;;;;;;;4.98;100.00;103501.19;5051117;28;20499;-76
2022/01/28 10:53:08;;;;;;;28.40;8.73;;;;;;;4.99;100.00;103481.19;5050770;28;20044;-76
2022/01/28 10:55:49;;;;;;;34.67;8.05;;;;;;;5.15;100.00;103503.66;5048091;28;20030;-76
2022/01/28 10:58:17;;;;;;;26.75;6.95;;;;;;;5.17;100.00;103490.56;5051549;28;20389;-76
2022/01/28 11:00:45;;;;;;;25.98;7.15;;;;;;;5.22;99.73;103475.78;5050928;28;20362;-76
2022/01/28 11:03:13;;;;;;;20.42;6.28;;;;;;;5.34;98.31;103483.47;5051462;28;20029;-76
2022/01/28 11:05:43;;;;;;;22.65;5.97;;;;;;;5.41;97.51;103477.31;5051653;28;20025;-76
2022/01/28 11:08:11;;;;;;;22.88;5.57;;;;;;;5.44;97.26;103469.44;5050840;28;20029;-76
2022/01/28 11:10:38;;;;;;;24.13;6.05;;;;;;;5.52;97.24;103478.06;5051754;28;20223;-77
2022/01/28 11:13:04;;;;;;;19.38;5.53;;;;;;;5.53;96.87;103474.56;5046835;28;20056;-76
2022/01/28 11:15:30;;;;;;;24.85;5.88;;;;;;;5.57;96.18;103464.94;5070540;28;20063;-76
2022/01/28 11:17:59;;;;;;;24.65;6.30;;;;;;;5.71;96.67;103472.66;5070702;28;20032;-76
2022/01/28 11:20:34;;;;;;;26.17;5.47;;;;;;;5.75;96.06;103463.88;5066696;28;20082;-76
2022/01/28 11:23:29;;;;;;;19.38;5.25;;;;;;;5.86;95.50;103457.66;5048602;28;20021;-76
2022/01/28 11:26:06;;;;;;;22.85;6.13;;;;;;;5.92;95.34;103459.34;5046790;28;20072;-76
2022/01/28 11:28:42;;;;;;;24.75;4.90;;;;;;;6.03;94.58;103448.78;5049553;28;20554;-76
2022/01/28 11:31:08;;;;;;;22.63;5.13;;;;;;;6.02;94.20;103441.81;5043028;28;20067;-76
2022/01/28 11:33:45;;;;;;;18.83;4.53;;;;;;;6.10;93.02;103448.66;5049593;28;20029;-76
2022/01/28 11:36:10;;;;;;;19.35;4.70;;;;;;;6.20;94.13;103438.94;5050459;28;20029;-76
2022/01/28 11:38:40;;;;;;;20.52;4.07;;;;;;;6.33;93.19;103444.84;5050547;28;20020;-76
2022/01/28 11:41:14;;;;;;;15.88;4.60;;;;;;;6.41;92.74;103440.41;5049930;28;20461;-76
2022/01/28 11:43:48;;;;;;;15.90;4.40;;;;;;;6.45;91.62;103434.25;5049647;28;20370;-76
2022/01/28 11:46:21;;;;;;;23.17;4.63;;;;;;;6.50;91.07;103435.03;5050178;28;20488;-76
2022/01/28 11:48:53;;;;;;;21.63;4.50;;;;;;;6.60;91.33;103424.38;5043272;28;20021;-76
2022/01/28 11:51:20;;;;;;;17.00;4.30;;;;;;;6.75;92.45;103431.13;5048046;28;20040;-76
2022/01/28 11:53:59;;;;;;;14.68;4.40;;;;;;;6.80;91.07;103418.81;5049661;28;20025;-76
2022/01/28 11:56:25;;;;;;;14.45;3.50;;;;;;;6.97;89.25;103422.91;5064836;28;20029;-76
2022/01/28 11:58:52;;;;;;;19.38;3.70;;;;;;;7.03;88.25;103414.94;5048261;28;20183;-76
2022/01/28 12:01:25;;;;;;;13.80;3.13;;;;;;;7.09;86.72;103425.31;5048645;28;20020;-76
2022/01/28 12:04:26;;;;;;;13.10;2.92;;;;;;;7.20;86.30;103428.59;5048863;28;20021;-75
2022/01/28 12:07:15;;;;;;;19.52;3.83;;;;;;;7.26;84.61;103423.25;5043013;28;20507;-76
2022/01/28 12:09:43;;;;;;;17.08;3.55;;;;;;;7.30;83.70;103426.69;5049669;28;20052;-76
2022/01/28 12:12:10;;;;;;;12.50;2.70;;;;;;;7.23;82.27;103424.19;5048747;28;20021;-75
2022/01/28 12:15:16;;;;;;;10.25;3.03;;;;;;;7.22;83.32;103422.47;5064232;28;20024;-76
2022/01/28 12:17:44;;;;;;;8.88;2.58;;;;;;;7.19;79.67;103419.88;5069397;28;20025;-76
2022/01/28 12:20:15;;;;;;;13.27;2.60;;;;;;;7.16;79.77;103419.06;5068249;28;20016;-75
2022/01/28 12:22:59;;;;;;;10.75;2.85;;;;;;;7.15;82.28;103414.72;5044244;28;20107;-75
2022/01/28 12:25:36;;;;;;;12.30;2.90;;;;;;;7.12;81.89;103396.44;5049537;28;20025;-75
2022/01/28 12:28:26;;;;;;;8.88;3.00;;;;;;;7.12;82.44;103385.97;5049600;28;20056;-76
2022/01/28 12:31:00;;;;;;;17.33;3.90;;;;;;;7.15;81.81;103380.69;5049183;28;20124;-76
2022/01/28 12:33:30;;;;;;;14.73;4.13;;;;;;;7.15;82.11;103378.06;5048213;28;20033;-75
2022/01/28 12:35:58;;;;;;;17.45;4.30;;;;;;;7.22;83.21;103385.81;5049404;28;20107;-75
2022/01/28 12:38:29;;;;;;;20.73;4.68;;;;;;;7.29;82.97;103390.91;5050016;28;20112;-75
2022/01/28 12:41:04;;;;;;;22.85;5.13;;;;;;;7.33;83.27;103377.72;5042292;28;20031;-75
2022/01/28 12:43:30;;;;;;;19.15;5.88;;;;;;;7.37;83.69;103376.78;5049153;28;20087;-75
2022/01/28 12:46:03;;;;;;;18.35;6.15;;;;;;;7.45;84.79;103380.09;5046935;28;20480;-75